KAUM/AUM METAR and TAF weather

Enter ICAO airport designator
Station Type Date Time Source
KAUM METAR 2022/01/27 23:15 UTC NOAA

KAUM 272315Z AUTO 33014G19KT 10SM UP SCT027 SCT034 OVC043 M05/M09 A3023 RMK AO2


Station Type Date Time Source
KAUM Decoded METAR 2022/01/27 23:15 UTC NOAA

Austin Municipal, MN, United States (KAUM) 43-40N 092-56W
Jan 27, 2022 - 06:15 PM EST / 2022.01.27 2315 UTC
Wind: from the NNW (330 degrees) at 16 MPH (14 KT) gusting to 22 MPH (19 KT):0
Visibility: 10 mile(s):0
Sky conditions: overcast
Weather: precipitation
Temperature: 23 F (-5 C)
Windchill: 10 F (-12 C):1
Dew Point: 15 F (-9 C)
Relative Humidity: 73%
Pressure (altimeter): 30.23 in. Hg (1023 hPa)
ob: KAUM 272315Z AUTO 33014G19KT 10SM UP SCT027 SCT034 OVC043 M05/M09 A3023 RMK AO2
cycle: 23

Station Type Date Time Source
KAUM TAF UTC NOAA

Error!

Example: see airport list